Time;durP1;ratioP1;P1;durP2;ratioP2;P2;SDS_P1;SDS_P2;PMS_P1;PMS_P2;Temp;Humidity;BMP_temperature;BMP_pressure;BME280_temperature;BME280_humidity;BME280_pressure;Samples;Min_cycle;Max_cycle;Signal;HPM_P1;HPM_P2
2023/10/04 00:02:25;;;;;;;9.00;4.25;;;;;;;11.58;100.00;100890.31;12175258;19;20022;-77
2023/10/04 00:06:27;;;;;;;9.50;4.22;;;;;;;11.59;100.00;100890.06;12179147;19;20014;-77
2023/10/04 00:10:29;;;;;;;8.70;4.13;;;;;;;11.59;100.00;100881.78;12153799;19;20023;-77
2023/10/04 00:14:31;;;;;;;10.35;4.07;;;;;;;11.59;100.00;100894.75;12173631;19;20023;-77
2023/10/04 00:18:32;;;;;;;9.38;4.55;;;;;;;11.61;100.00;100907.25;12173459;19;20015;-77
2023/10/04 00:22:38;;;;;;;8.70;4.10;;;;;;;11.58;100.00;100904.09;12148485;19;20495;-77
2023/10/04 00:26:42;;;;;;;8.13;4.13;;;;;;;11.60;100.00;100902.81;12180717;19;20003;-77
2023/10/04 00:30:44;;;;;;;11.43;4.82;;;;;;;11.60;100.00;100912.97;12160384;19;20014;-77
2023/10/04 00:34:46;;;;;;;12.23;4.40;;;;;;;11.60;100.00;100900.03;12180957;19;20025;-77
2023/10/04 00:38:48;;;;;;;7.35;4.47;;;;;;;11.59;100.00;100903.84;12178833;19;20014;-78
2023/10/04 00:42:51;;;;;;;10.10;4.35;;;;;;;11.60;100.00;100915.75;12154282;19;20007;-77
2023/10/04 00:46:53;;;;;;;9.02;4.03;;;;;;;11.59;100.00;100916.81;12182620;19;20003;-77
2023/10/04 00:50:58;;;;;;;14.02;5.35;;;;;;;11.56;100.00;100917.28;12187816;19;20011;-77
2023/10/04 00:55:01;;;;;;;9.05;4.78;;;;;;;11.54;100.00;100913.91;12169977;19;20031;-77
2023/10/04 00:59:03;;;;;;;6.63;3.60;;;;;;;11.49;100.00;100930.31;12191609;19;20010;-78
2023/10/04 01:03:09;;;;;;;10.93;4.70;;;;;;;11.49;100.00;100927.56;12191940;19;20042;-77
2023/10/04 01:07:13;;;;;;;14.13;5.32;;;;;;;11.49;100.00;100930.31;12169506;19;20582;-77
2023/10/04 01:11:15;;;;;;;14.02;5.65;;;;;;;11.48;100.00;100925.84;12185907;19;20006;-77
2023/10/04 01:15:29;;;;;;;12.00;4.90;;;;;;;11.50;100.00;100940.28;12188149;19;20525;-77
2023/10/04 01:19:32;;;;;;;10.75;4.28;;;;;;;11.48;100.00;100931.38;12163888;19;20038;-77
2023/10/04 01:23:34;;;;;;;10.07;5.18;;;;;;;11.45;100.00;100932.72;12185448;19;20030;-76
2023/10/04 01:27:38;;;;;;;12.48;4.47;;;;;;;11.44;100.00;100930.16;12187751;19;20014;-77
2023/10/04 01:31:41;;;;;;;9.80;4.45;;;;;;;11.45;100.00;100949.25;12168764;19;20049;-77
2023/10/04 01:35:45;;;;;;;9.90;3.92;;;;;;;11.43;100.00;100945.03;12193260;19;19998;-76
2023/10/04 01:39:47;;;;;;;8.77;4.15;;;;;;;11.40;100.00;100941.66;12156886;19;20010;-77
2023/10/04 01:43:50;;;;;;;9.35;3.97;;;;;;;11.38;100.00;100935.50;12186387;19;20014;-77
2023/10/04 01:47:52;;;;;;;7.72;3.90;;;;;;;11.38;100.00;100940.19;12181582;19;20025;-77
2023/10/04 01:51:54;;;;;;;9.68;4.18;;;;;;;11.37;100.00;100946.78;12150844;19;20007;-77
2023/10/04 01:55:56;;;;;;;6.85;3.67;;;;;;;11.36;100.00;100951.47;12182537;19;20081;-77
2023/10/04 01:59:58;;;;;;;9.50;4.20;;;;;;;11.35;100.00;100948.94;12182554;19;20014;-77
2023/10/04 02:04:04;;;;;;;8.95;4.35;;;;;;;11.35;100.00;100951.69;12161826;19;20047;-77
2023/10/04 02:08:09;;;;;;;12.68;3.90;;;;;;;11.33;100.00;100951.06;12184445;19;20014;-77
2023/10/04 02:12:11;;;;;;;8.25;3.97;;;;;;;11.33;100.00;100942.78;12184209;19;19998;-77
2023/10/04 02:16:18;;;;;;;8.97;4.10;;;;;;;11.28;100.00;100943.47;12161168;19;20011;-77
2023/10/04 02:20:24;;;;;;;7.75;3.55;;;;;;;11.26;100.00;100939.25;12181386;19;20102;-77
2023/10/04 02:24:26;;;;;;;11.25;4.32;;;;;;;11.25;100.00;100943.09;12182316;19;20003;-77
2023/10/04 02:28:30;;;;;;;11.75;3.42;;;;;;;11.22;100.00;100943.53;12162850;19;20093;-77
2023/10/04 02:32:33;;;;;;;9.82;3.53;;;;;;;11.21;100.00;100941.84;12185438;19;20473;-78
2023/10/04 02:36:35;;;;;;;9.02;3.70;;;;;;;11.20;100.00;100941.00;12185702;19;20003;-77
2023/10/04 02:40:37;;;;;;;8.82;3.65;;;;;;;11.20;100.00;100942.91;12155170;19;20117;-77
2023/10/04 02:44:40;;;;;;;7.53;3.42;;;;;;;11.16;100.00;100943.38;12174178;19;20010;-77
2023/10/04 02:48:42;;;;;;;8.02;3.60;;;;;;;11.14;100.00;100942.75;12170640;19;20596;-77
2023/10/04 02:52:50;;;;;;;12.38;3.22;;;;;;;11.11;100.00;100940.44;12193259;19;20024;-77
2023/10/04 02:56:53;;;;;;;8.00;3.67;;;;;;;11.10;100.00;100941.53;12191010;19;20402;-77
2023/10/04 03:00:57;;;;;;;7.75;3.15;;;;;;;11.08;100.00;100940.88;12168635;19;20030;-77
2023/10/04 03:04:59;;;;;;;11.30;3.47;;;;;;;11.07;100.00;100936.47;12200231;19;20469;-77
2023/10/04 03:09:01;;;;;;;7.87;3.53;;;;;;;11.08;100.00;100943.66;12194537;19;20014;-77
2023/10/04 03:13:12;;;;;;;7.47;3.25;;;;;;;11.11;100.00;100943.19;12172835;19;20018;-77
2023/10/04 03:17:15;;;;;;;10.43;3.60;;;;;;;11.10;100.00;100947.03;12194389;19;20011;-77
2023/10/04 03:21:20;;;;;;;9.52;4.25;;;;;;;11.08;100.00;100943.66;12194265;19;20054;-77
2023/10/04 03:25:29;;;;;;;11.00;3.47;;;;;;;11.07;100.00;100944.72;12175974;19;20014;-77
2023/10/04 03:29:31;;;;;;;10.52;3.17;;;;;;;11.06;100.00;100939.44;12196021;19;20003;-78
2023/10/04 03:33:40;;;;;;;13.13;3.92;;;;;;;11.04;100.00;100941.59;12195729;19;20003;-77
2023/10/04 03:37:50;;;;;;;10.43;3.63;;;;;;;11.05;100.00;100946.03;12167184;19;20595;-77
2023/10/04 03:41:53;;;;;;;11.77;3.85;;;;;;;11.02;100.00;100944.56;12193776;19;20497;-77
2023/10/04 03:45:55;;;;;;;7.93;3.40;;;;;;;11.01;100.00;100936.53;12170604;19;20022;-77
2023/10/04 03:49:56;;;;;;;9.43;3.63;;;;;;;10.95;100.00;100932.75;12191068;19;20018;-77
2023/10/04 03:53:58;;;;;;;9.88;3.88;;;;;;;10.93;100.00;100946.75;12190079;19;20010;-77
2023/10/04 03:58:04;;;;;;;9.20;3.22;;;;;;;10.91;100.00;100940.59;12169188;19;21197;-76
2023/10/04 04:02:06;;;;;;;8.75;3.75;;;;;;;10.89;100.00;100926.22;12188282;19;20010;-77
2023/10/04 04:06:08;;;;;;;6.53;3.22;;;;;;;10.87;100.00;100931.09;12190609;19;20382;-77
2023/10/04 04:10:12;;;;;;;12.27;4.23;;;;;;;10.83;100.00;100923.53;12165388;19;20010;-77
2023/10/04 04:14:18;;;;;;;12.30;3.58;;;;;;;10.81;100.00;100931.16;12191452;19;20010;-76
2023/10/04 04:18:21;;;;;;;10.88;3.70;;;;;;;10.79;100.00;100928.63;12188557;19;20512;-77
2023/10/04 04:22:28;;;;;;;12.60;3.28;;;;;;;10.80;100.00;100923.97;12171057;19;20363;-77
2023/10/04 04:26:33;;;;;;;6.72;3.60;;;;;;;10.78;100.00;100926.94;12201786;19;20027;-76
2023/10/04 04:30:35;;;;;;;7.20;3.03;;;;;;;10.77;100.00;100928.00;12201699;19;20138;-77
2023/10/04 04:34:41;;;;;;;9.68;3.17;;;;;;;10.75;100.00;100902.56;12179092;19;20034;-77
2023/10/04 04:38:47;;;;;;;11.93;3.80;;;;;;;10.76;100.00;100897.91;12197670;19;20384;-76
2023/10/04 04:42:49;;;;;;;7.78;3.08;;;;;;;10.71;100.00;100887.56;12176691;19;20082;-77
2023/10/04 04:46:52;;;;;;;9.35;3.75;;;;;;;10.70;100.00;100894.97;12199893;19;20434;-77
2023/10/04 04:51:02;;;;;;;11.30;3.50;;;;;;;10.70;100.00;100897.72;12196796;19;20380;-76
2023/10/04 04:55:07;;;;;;;8.95;3.05;;;;;;;10.69;100.00;100912.56;12180002;19;20052;-76
2023/10/04 04:59:09;;;;;;;12.55;4.28;;;;;;;10.69;100.00;100906.22;12201395;19;20457;-77
2023/10/04 05:03:14;;;;;;;9.27;3.65;;;;;;;10.70;100.00;100910.66;12200602;19;20043;-77
2023/10/04 05:07:16;;;;;;;10.43;3.17;;;;;;;10.71;100.00;100896.66;12179331;19;20007;-77
2023/10/04 05:11:18;;;;;;;11.32;3.30;;;;;;;10.72;100.00;100911.28;12204495;19;20023;-77
2023/10/04 05:15:31;;;;;;;13.38;4.97;;;;;;;10.72;100.00;100920.41;12201575;19;20781;-76
2023/10/04 05:19:33;;;;;;;8.70;2.63;;;;;;;10.69;100.00;100914.50;12176115;19;20914;-76
2023/10/04 05:23:35;;;;;;;9.65;3.35;;;;;;;10.68;100.00;100915.56;12196803;19;20034;-77
2023/10/04 05:27:36;;;;;;;7.63;2.63;;;;;;;10.67;100.00;100919.38;12197826;19;20523;-76
2023/10/04 05:31:41;;;;;;;7.70;2.97;;;;;;;10.63;100.00;100923.66;12177386;19;20006;-76
2023/10/04 05:35:44;;;;;;;8.65;2.75;;;;;;;10.61;100.00;100934.06;12189422;19;20007;-77
2023/10/04 05:39:46;;;;;;;8.52;3.58;;;;;;;10.61;100.00;100934.06;12165396;19;20027;-76
2023/10/04 05:43:49;;;;;;;12.98;3.72;;;;;;;10.61;100.00;100931.28;12180963;19;20007;-76
2023/10/04 05:47:52;;;;;;;9.88;3.83;;;;;;;10.61;100.00;100950.59;12199948;19;20027;-76
2023/10/04 05:51:54;;;;;;;9.20;3.50;;;;;;;10.62;100.00;100949.50;12170279;19;21582;-77
2023/10/04 05:55:56;;;;;;;12.18;4.97;;;;;;;10.61;100.00;100967.97;12202532;19;20006;-77
2023/10/04 05:59:57;;;;;;;13.20;4.53;;;;;;;10.63;100.00;100971.34;12201044;19;19998;-76
2023/10/04 06:03:59;;;;;;;9.32;3.90;;;;;;;10.65;100.00;100980.25;12181644;19;21480;-77
2023/10/04 06:08:21;;;;;;;12.18;4.85;;;;;;;10.69;100.00;100984.25;12202000;19;20018;-77
2023/10/04 06:12:24;;;;;;;17.92;4.82;;;;;;;10.73;100.00;100990.16;12203215;19;20018;-78
2023/10/04 06:16:26;;;;;;;12.38;5.05;;;;;;;10.75;100.00;100992.72;12180011;19;20369;-78
2023/10/04 06:20:28;;;;;;;10.80;5.03;;;;;;;10.77;100.00;101010.72;12199569;19;20499;-77
2023/10/04 06:24:30;;;;;;;14.90;4.73;;;;;;;10.81;100.00;101000.09;12199814;19;20011;-78
2023/10/04 06:28:32;;;;;;;12.88;5.63;;;;;;;10.83;100.00;101009.00;12179285;19;20037;-77
2023/10/04 06:32:37;;;;;;;15.00;5.45;;;;;;;10.84;100.00;101005.16;12197860;19;20020;-77
2023/10/04 06:36:39;;;;;;;18.40;5.88;;;;;;;10.87;100.00;101008.31;12184651;19;20057;-78
2023/10/04 06:40:42;;;;;;;11.38;5.13;;;;;;;10.93;100.00;101010.16;12197227;19;20013;-78
2023/10/04 06:44:45;;;;;;;11.48;4.60;;;;;;;11.00;100.00;101018.41;12199485;19;20011;-78
2023/10/04 06:48:47;;;;;;;7.85;3.40;;;;;;;11.09;100.00;101022.56;12174926;19;20033;-78
2023/10/04 06:52:50;;;;;;;13.75;5.40;;;;;;;11.18;100.00;101032.28;12192076;19;20023;-78
2023/10/04 06:56:52;;;;;;;12.18;5.30;;;;;;;11.28;100.00;101033.69;12200758;19;20031;-77
2023/10/04 07:00:56;;;;;;;10.80;5.40;;;;;;;11.38;100.00;101036.78;12178939;19;20013;-78
2023/10/04 07:04:58;;;;;;;16.08;6.40;;;;;;;11.46;100.00;101035.66;12198989;19;20370;-78
2023/10/04 07:09:00;;;;;;;14.35;5.38;;;;;;;11.58;100.00;101029.16;12200019;19;20014;-78
2023/10/04 07:13:03;;;;;;;11.93;5.72;;;;;;;11.71;100.00;101036.47;12208514;19;20011;-78
2023/10/04 07:17:05;;;;;;;14.25;4.68;;;;;;;11.81;100.00;101031.28;12231646;19;20018;-78
2023/10/04 07:21:07;;;;;;;10.10;3.92;;;;;;;11.93;100.00;101055.41;12229507;19;20029;-78
2023/10/04 07:25:12;;;;;;;9.43;3.53;;;;;;;12.11;100.00;101058.19;12181572;19;20503;-78
2023/10/04 07:29:14;;;;;;;10.25;3.50;;;;;;;12.28;100.00;101059.28;12198971;19;20019;-78
2023/10/04 07:33:16;;;;;;;8.63;3.72;;;;;;;12.41;100.00;101057.44;12202098;19;20003;-78
2023/10/04 07:37:18;;;;;;;9.30;3.78;;;;;;;12.59;100.00;101073.16;12176827;19;20014;-78
2023/10/04 07:41:20;;;;;;;9.27;3.72;;;;;;;12.75;100.00;101064.19;12203110;19;20006;-78
2023/10/04 07:45:28;;;;;;;8.52;3.75;;;;;;;12.89;100.00;101074.00;12203394;19;20470;-79
2023/10/04 07:49:32;;;;;;;6.32;2.97;;;;;;;13.02;100.00;101072.97;12179288;19;20031;-79
2023/10/04 07:53:33;;;;;;;9.80;2.90;;;;;;;13.13;100.00;101074.94;12193121;19;20002;-78
2023/10/04 07:57:36;;;;;;;7.80;2.90;;;;;;;13.26;100.00;101078.59;12198211;19;20263;-79
2023/10/04 08:01:40;;;;;;;7.63;2.92;;;;;;;13.31;100.00;101078.75;12175471;19;20010;-79
2023/10/04 08:05:42;;;;;;;8.05;2.63;;;;;;;13.48;100.00;101078.91;12196896;19;20015;-79
2023/10/04 08:09:45;;;;;;;6.60;2.90;;;;;;;13.63;100.00;101071.81;12176965;19;20027;-79
2023/10/04 08:13:46;;;;;;;8.18;3.28;;;;;;;13.86;100.00;101064.59;12201601;19;20007;-80
2023/10/04 08:17:49;;;;;;;10.60;2.70;;;;;;;14.14;100.00;101072.19;12203275;19;20018;-80
2023/10/04 08:21:51;;;;;;;8.38;3.13;;;;;;;14.35;100.00;101065.16;12194295;19;20007;-81
2023/10/04 08:25:53;;;;;;;6.75;2.90;;;;;;;14.53;100.00;101066.94;12208077;19;20019;-80
2023/10/04 08:29:54;;;;;;;6.38;2.67;;;;;;;14.72;100.00;101067.59;12203983;19;19999;-80
2023/10/04 08:33:56;;;;;;;10.20;2.92;;;;;;;14.84;100.00;101073.94;12181378;19;20011;-80
2023/10/04 08:38:00;;;;;;;7.72;3.25;;;;;;;15.01;100.00;101071.22;12195987;19;20021;-80
2023/10/04 08:42:03;;;;;;;8.13;2.85;;;;;;;15.20;100.00;101060.72;12199032;19;20006;-81
2023/10/04 08:46:07;;;;;;;12.15;3.10;;;;;;;15.45;100.00;101066.75;12180900;19;20070;-81
2023/10/04 08:50:14;;;;;;;13.63;3.20;;;;;;;15.59;100.00;101063.66;12194665;19;20068;-81
2023/10/04 08:54:27;;;;;;;7.22;2.90;;;;;;;15.68;100.00;101060.22;12200862;19;20015;-82
2023/10/04 08:58:31;;;;;;;9.63;2.47;;;;;;;15.76;100.00;101061.72;12184509;19;20006;-82
2023/10/04 09:02:34;;;;;;;5.05;2.40;;;;;;;15.92;100.00;101065.59;12203022;19;20011;-81
2023/10/04 09:06:37;;;;;;;12.07;3.50;;;;;;;15.97;100.00;101062.03;12210452;19;20443;-81
2023/10/04 09:10:39;;;;;;;8.02;2.63;;;;;;;15.93;100.00;101065.31;12193109;19;20007;-82
2023/10/04 09:14:41;;;;;;;9.13;2.95;;;;;;;16.19;100.00;101065.69;12217452;19;20002;-81
2023/10/04 09:18:43;;;;;;;9.90;4.15;;;;;;;16.31;100.00;101062.81;12192425;19;20018;-81
2023/10/04 09:22:46;;;;;;;8.55;2.58;;;;;;;16.38;100.00;101064.28;12215748;19;20369;-82
2023/10/04 09:26:48;;;;;;;;;;;;;;;16.40;100.00;101062.09;12216966;19;20026;-82
2023/10/04 09:31:07;;;;;;;9.75;2.40;;;;;;;16.14;100.00;101062.84;12190007;19;19915;-82
2023/10/04 09:35:10;;;;;;;10.25;3.10;;;;;;;16.05;100.00;101064.38;12217388;19;20428;-81
2023/10/04 09:39:16;;;;;;;6.47;2.85;;;;;;;16.35;100.00;101056.44;12211992;19;20014;-81
2023/10/04 09:43:32;;;;;;;9.38;3.20;;;;;;;16.39;100.00;101054.84;12195502;19;20603;-81
2023/10/04 09:47:39;;;;;;;5.88;2.30;;;;;;;16.51;100.00;101051.09;12210146;19;20028;-82
2023/10/04 09:51:41;;;;;;;6.13;2.60;;;;;;;16.66;100.00;101053.22;12184988;19;20010;-82
2023/10/04 09:55:44;;;;;;;8.88;3.65;;;;;;;17.06;100.00;101052.88;12204709;19;20024;-82
2023/10/04 09:59:48;;;;;;;6.70;2.38;;;;;;;17.46;100.00;101046.84;12209747;19;20018;-82
2023/10/04 10:03:57;;;;;;;6.72;2.42;;;;;;;17.85;100.00;101048.56;12188664;19;20022;-81
2023/10/04 10:08:06;;;;;;;6.25;2.67;;;;;;;18.29;100.00;101056.63;12205115;19;20532;-81
2023/10/04 10:12:08;;;;;;;10.80;3.22;;;;;;;18.48;99.67;101049.47;12200051;19;20007;-81
2023/10/04 10:16:11;;;;;;;5.70;1.77;;;;;;;18.20;100.00;101048.78;12186222;19;20027;-81
2023/10/04 10:20:15;;;;;;;10.10;2.47;;;;;;;18.35;100.00;101038.78;12205976;19;20010;-82
2023/10/04 10:24:17;;;;;;;6.30;2.72;;;;;;;18.53;99.29;101040.25;12213454;19;20703;-82
2023/10/04 10:28:21;;;;;;;6.17;2.10;;;;;;;18.74;97.24;101035.63;12189046;19;20022;-81
2023/10/04 10:32:23;;;;;;;9.93;2.35;;;;;;;19.06;94.27;101041.84;12208788;19;20014;-82
2023/10/04 10:36:27;;;;;;;8.73;1.95;;;;;;;18.82;93.80;101041.50;12204561;19;20017;-81
2023/10/04 10:40:34;;;;;;;12.25;2.95;;;;;;;18.74;93.58;101022.53;12182796;19;20062;-82
2023/10/04 10:44:39;;;;;;;6.93;1.83;;;;;;;19.03;90.21;101036.81;12207517;19;20006;-82
2023/10/04 10:48:40;;;;;;;9.20;2.22;;;;;;;19.32;91.78;101022.31;12183290;19;20053;-82
2023/10/04 10:52:43;;;;;;;6.93;1.87;;;;;;;19.80;84.71;101020.09;12203801;19;20401;-82
2023/10/04 10:56:44;;;;;;;7.43;1.90;;;;;;;19.44;83.76;101020.09;12201856;19;20552;-83
2023/10/04 11:00:46;;;;;;;8.13;2.93;;;;;;;19.64;83.54;101019.25;12189488;19;20013;-82
2023/10/04 11:04:49;;;;;;;7.47;2.00;;;;;;;19.90;80.21;101027.63;12215387;19;20018;-84
2023/10/04 11:08:55;;;;;;;;;;;;;;;19.69;80.32;101021.22;12205402;19;20014;-83
2023/10/04 11:13:03;;;;;;;12.82;3.00;;;;;;;19.40;78.48;101032.13;12191249;19;19966;-83
2023/10/04 11:17:05;;;;;;;7.70;2.55;;;;;;;18.83;82.86;101029.25;12209319;19;20010;-85
2023/10/04 11:21:07;;;;;;;12.10;2.67;;;;;;;18.61;84.51;101029.41;12195642;19;20011;-89
2023/10/04 11:25:11;;;;;;;4.37;1.90;;;;;;;18.26;85.60;101023.69;12178800;19;20267;-82
2023/10/04 11:29:13;;;;;;;8.48;2.88;;;;;;;18.13;88.51;101014.69;12197448;19;20368;-82
2023/10/04 11:33:17;;;;;;;10.13;2.47;;;;;;;18.58;86.91;101007.63;12194238;19;20010;-82
2023/10/04 11:37:19;;;;;;;;;;;;;;;18.94;80.46;100999.38;12176743;19;20013;-82
2023/10/04 11:41:28;;;;;;;7.15;2.92;;;;;;;19.79;73.42;100993.25;12194609;19;19919;-83
2023/10/04 11:45:31;;;;;;;7.22;2.70;;;;;;;20.47;68.11;100999.19;12199429;19;20019;-84
2023/10/04 11:49:35;;;;;;;;;;;;;;;21.19;69.99;100992.31;12173310;19;20010;-84
2023/10/04 11:53:44;;;;;;;9.32;2.97;;;;;;;21.55;65.51;100984.47;12193527;19;19911;-83
2023/10/04 11:57:47;;;;;;;9.15;3.63;;;;;;;21.07;63.87;100982.31;12172160;19;20013;-83
2023/10/04 12:01:53;;;;;;;8.25;3.22;;;;;;;20.59;62.59;100986.84;12201614;19;20390;-84
2023/10/04 12:05:56;;;;;;;9.27;3.35;;;;;;;20.98;63.44;100972.03;12198549;19;20034;-84
2023/10/04 12:09:59;;;;;;;12.10;3.72;;;;;;;21.63;61.36;100961.41;12173644;19;20026;-83
2023/10/04 12:14:02;;;;;;;8.98;3.22;;;;;;;22.43;58.69;100954.31;12198215;19;20041;-83
2023/10/04 12:18:06;;;;;;;7.05;2.92;;;;;;;22.70;57.91;100942.41;12194431;19;20010;-83
2023/10/04 12:22:11;;;;;;;7.28;2.95;;;;;;;23.06;53.15;100934.28;12178738;19;20390;-83
2023/10/04 12:26:16;;;;;;;9.07;3.03;;;;;;;23.38;53.11;100926.97;12192673;19;20010;-83
2023/10/04 12:30:20;;;;;;;8.55;3.08;;;;;;;23.71;52.99;100921.31;12193415;19;20007;-82
2023/10/04 12:34:24;;;;;;;8.35;3.22;;;;;;;23.98;49.16;100918.53;12170697;19;20478;-82
2023/10/04 12:38:26;;;;;;;9.18;3.17;;;;;;;24.24;48.54;100912.34;12192217;19;20512;-82
2023/10/04 12:42:29;;;;;;;8.82;3.50;;;;;;;24.11;47.94;100920.50;12196135;19;20033;-81
2023/10/04 12:46:31;;;;;;;11.23;3.38;;;;;;;23.26;49.16;100912.56;12176700;19;20113;-81
2023/10/04 12:50:35;;;;;;;9.70;4.18;;;;;;;22.63;50.39;100913.84;12196554;19;20022;-81
2023/10/04 12:54:36;;;;;;;10.32;3.58;;;;;;;22.07;51.91;100912.59;12199766;19;20069;-81
2023/10/04 12:58:38;;;;;;;7.15;3.40;;;;;;;21.85;53.40;100905.59;12171766;19;20015;-81
2023/10/04 13:02:44;;;;;;;10.00;3.40;;;;;;;21.43;53.54;100911.94;12202117;19;20081;-81
2023/10/04 13:06:47;;;;;;;11.43;2.90;;;;;;;21.29;56.33;100905.31;12175775;19;20022;-81
2023/10/04 13:10:49;;;;;;;11.43;3.33;;;;;;;21.15;55.68;100908.81;12199309;19;20011;-80
2023/10/04 13:14:52;;;;;;;8.60;4.17;;;;;;;21.09;56.78;100909.16;12201482;19;20011;-81
2023/10/04 13:18:57;;;;;;;9.13;3.53;;;;;;;20.91;56.82;100900.34;12180270;19;21506;-81
2023/10/04 13:23:00;;;;;;;8.40;3.47;;;;;;;20.79;57.10;100899.03;12200607;19;20088;-81
2023/10/04 13:27:03;;;;;;;7.65;2.85;;;;;;;20.83;58.14;100905.75;12195745;19;20050;-82
2023/10/04 13:31:05;;;;;;;9.23;3.08;;;;;;;20.75;56.87;100898.78;12175464;19;20027;-81
2023/10/04 13:35:08;;;;;;;12.07;3.50;;;;;;;20.69;58.30;100892.38;12199451;19;20002;-80
2023/10/04 13:39:10;;;;;;;8.60;3.40;;;;;;;20.76;59.10;100888.41;12206117;19;20077;-81
2023/10/04 13:43:12;;;;;;;8.15;3.42;;;;;;;20.84;57.95;100883.03;12183149;19;20009;-81
2023/10/04 13:47:15;;;;;;;9.23;3.92;;;;;;;20.92;56.76;100867.56;12199128;19;20007;-82
2023/10/04 13:51:24;;;;;;;7.80;2.80;;;;;;;20.84;56.83;100870.97;12200058;19;20465;-82
2023/10/04 13:55:27;;;;;;;10.48;3.95;;;;;;;20.80;57.90;100864.31;12175346;19;20045;-82
2023/10/04 13:59:29;;;;;;;6.60;3.13;;;;;;;20.61;57.85;100869.75;12191242;19;20403;-82
2023/10/04 14:03:33;;;;;;;9.93;3.33;;;;;;;20.41;58.70;100882.75;12204348;19;20023;-81
2023/10/04 14:07:37;;;;;;;10.60;3.60;;;;;;;20.27;59.57;100887.31;12174463;19;20079;-82
2023/10/04 14:11:44;;;;;;;9.45;3.28;;;;;;;20.09;61.11;100873.97;12198358;19;20435;-82
2023/10/04 14:15:55;;;;;;;11.30;3.58;;;;;;;19.80;60.50;100878.28;12176773;19;20017;-82
2023/10/04 14:20:00;;;;;;;7.18;3.38;;;;;;;19.60;62.55;100878.31;12199709;19;19998;-82
2023/10/04 14:24:02;;;;;;;9.07;3.25;;;;;;;19.46;63.58;100877.25;12198475;19;20023;-82
2023/10/04 14:28:05;;;;;;;6.37;2.90;;;;;;;19.41;64.75;100868.88;12177097;19;20406;-82
2023/10/04 14:32:07;;;;;;;9.93;3.85;;;;;;;19.46;64.92;100877.25;12205836;19;20256;-82
2023/10/04 14:36:10;;;;;;;9.82;3.38;;;;;;;19.57;64.51;100867.72;12197873;19;20007;-82
2023/10/04 14:40:22;;;;;;;11.25;4.05;;;;;;;19.68;64.71;100862.97;12173232;19;20010;-81
2023/10/04 14:44:25;;;;;;;7.97;3.10;;;;;;;19.78;64.97;100847.00;12197984;19;20006;-82
2023/10/04 14:48:27;;;;;;;;;;;;;;;19.75;65.71;100853.16;12196960;19;20006;-82
2023/10/04 14:52:31;;;;;;;10.90;3.83;;;;;;;19.75;64.60;100852.28;12175861;19;19915;-82
2023/10/04 14:56:33;;;;;;;7.60;2.90;;;;;;;19.72;64.97;100839.75;12197430;19;20009;-81
2023/10/04 15:00:35;;;;;;;11.70;4.00;;;;;;;19.69;65.38;100825.47;12196081;19;20017;-82
2023/10/04 15:04:40;;;;;;;9.43;3.00;;;;;;;19.55;66.27;100830.84;12176405;19;20027;-81
2023/10/04 15:08:45;;;;;;;7.20;3.05;;;;;;;19.39;65.79;100826.41;12192760;19;20007;-82
2023/10/04 15:12:48;;;;;;;11.25;3.88;;;;;;;19.30;66.18;100821.41;12177156;19;20010;-83
2023/10/04 15:16:50;;;;;;;9.23;3.00;;;;;;;19.25;66.78;100827.00;12199009;19;20079;-82
2023/10/04 15:21:00;;;;;;;6.55;2.67;;;;;;;19.16;67.69;100833.47;12205587;19;20053;-82
2023/10/04 15:25:07;;;;;;;9.27;3.22;;;;;;;19.18;67.47;100826.44;12181442;19;20006;-82
2023/10/04 15:29:09;;;;;;;8.32;3.33;;;;;;;19.19;67.02;100828.13;12210784;19;20010;-82
2023/10/04 15:33:11;;;;;;;10.13;3.27;;;;;;;19.04;66.88;100831.81;12213676;19;20033;-83
2023/10/04 15:37:13;;;;;;;10.00;3.38;;;;;;;18.95;67.87;100824.25;12190315;19;20581;-82
2023/10/04 15:41:16;;;;;;;8.52;3.05;;;;;;;18.86;69.79;100841.59;12211078;19;20588;-83
2023/10/04 15:45:22;;;;;;;8.25;3.08;;;;;;;18.79;69.71;100840.19;12215916;19;20030;-82
2023/10/04 15:49:24;;;;;;;8.68;3.25;;;;;;;18.74;70.99;100838.25;12188604;19;20010;-82
2023/10/04 15:53:26;;;;;;;7.53;3.10;;;;;;;18.62;71.85;100841.28;12221541;19;20007;-81
2023/10/04 15:57:28;;;;;;;9.63;2.75;;;;;;;18.50;72.82;100842.66;12242142;19;20110;-82
2023/10/04 16:01:30;;;;;;;10.07;3.67;;;;;;;18.27;74.29;100856.03;12209090;19;20007;-81
2023/10/04 16:05:32;;;;;;;10.73;2.75;;;;;;;18.07;75.68;100845.66;12225524;19;20007;-83
2023/10/04 16:09:34;;;;;;;8.07;3.40;;;;;;;17.88;76.67;100847.28;12208875;19;20006;-82
2023/10/04 16:13:36;;;;;;;11.13;3.50;;;;;;;17.77;76.91;100830.50;12185070;19;19999;-82
2023/10/04 16:17:38;;;;;;;12.85;4.65;;;;;;;17.64;78.51;100830.97;12203634;19;20045;-82
2023/10/04 16:21:41;;;;;;;6.70;3.03;;;;;;;17.40;83.63;100825.03;12192160;19;20017;-82
2023/10/04 16:25:43;;;;;;;8.38;2.90;;;;;;;17.14;87.46;100835.16;12211727;19;20010;-81
2023/10/04 16:29:45;;;;;;;10.65;4.35;;;;;;;16.88;91.07;100827.75;12209421;19;20006;-82
2023/10/04 16:33:49;;;;;;;10.20;4.10;;;;;;;16.68;93.52;100831.16;12188642;19;20010;-81
2023/10/04 16:37:51;;;;;;;9.57;3.83;;;;;;;16.51;94.66;100834.06;12206367;19;20059;-82
2023/10/04 16:41:53;;;;;;;10.55;3.10;;;;;;;16.37;96.49;100834.50;12207449;19;20003;-81
2023/10/04 16:45:55;;;;;;;8.77;3.10;;;;;;;16.24;98.08;100826.59;12183505;19;20021;-81
2023/10/04 16:49:58;;;;;;;11.93;2.80;;;;;;;16.08;100.00;100831.16;12205099;19;20011;-80
2023/10/04 16:54:00;;;;;;;9.83;3.03;;;;;;;15.93;100.00;100831.81;12204344;19;20566;-81
2023/10/04 16:58:01;;;;;;;9.43;3.33;;;;;;;15.82;100.00;100832.78;12184921;19;20006;-82
2023/10/04 17:02:03;;;;;;;9.63;3.72;;;;;;;15.72;100.00;100844.63;12203931;19;20078;-81
2023/10/04 17:06:05;;;;;;;8.68;3.25;;;;;;;15.64;100.00;100841.44;12203548;19;20021;-81
2023/10/04 17:10:08;;;;;;;10.05;3.15;;;;;;;15.56;100.00;100841.91;12180966;19;20009;-81
2023/10/04 17:14:10;;;;;;;15.15;5.43;;;;;;;15.45;100.00;100838.16;12199796;19;20063;-81
2023/10/04 17:18:13;;;;;;;14.10;4.05;;;;;;;15.37;100.00;100839.41;12206847;19;20007;-81
2023/10/04 17:22:16;;;;;;;;;;;;;;;15.25;100.00;100841.47;12185876;19;20021;-81
2023/10/04 17:26:18;;;;;;;;;;;;;;;15.15;100.00;100833.00;12203585;19;19911;-81
2023/10/04 17:30:20;;;;;;;10.05;3.70;;;;;;;15.08;100.00;100840.66;12201788;19;19907;-81
2023/10/04 17:34:22;;;;;;;13.50;3.30;;;;;;;14.99;100.00;100840.25;12182957;19;20014;-81
2023/10/04 17:38:25;;;;;;;8.13;3.33;;;;;;;14.90;100.00;100841.78;12202545;19;20032;-81
2023/10/04 17:42:27;;;;;;;7.30;2.85;;;;;;;14.84;100.00;100843.63;12203288;19;20013;-80
2023/10/04 17:46:29;;;;;;;9.03;4.30;;;;;;;14.84;100.00;100845.56;12174365;19;20002;-81
2023/10/04 17:50:31;;;;;;;13.63;4.13;;;;;;;14.81;100.00;100849.69;12202945;19;20495;-80
2023/10/04 17:54:33;;;;;;;8.98;3.03;;;;;;;14.79;100.00;100849.09;12201590;19;20086;-82
2023/10/04 17:58:36;;;;;;;11.83;4.80;;;;;;;14.77;100.00;100845.75;12184778;19;20074;-81
2023/10/04 18:02:40;;;;;;;9.10;2.80;;;;;;;14.75;100.00;100857.09;12203761;19;20278;-80
2023/10/04 18:06:43;;;;;;;10.35;3.47;;;;;;;14.67;100.00;100851.13;12180828;19;20010;-80
2023/10/04 18:10:45;;;;;;;8.52;3.13;;;;;;;14.62;100.00;100856.59;12199827;19;20006;-81
2023/10/04 18:14:48;;;;;;;10.60;3.67;;;;;;;14.55;100.00;100867.84;12203397;19;20006;-80
2023/10/04 18:18:49;;;;;;;11.93;3.63;;;;;;;14.48;100.00;100862.41;12177931;19;20010;-80
2023/10/04 18:22:53;;;;;;;13.47;4.07;;;;;;;14.36;100.00;100856.09;12207887;19;20014;-80
2023/10/04 18:26:55;;;;;;;11.57;4.38;;;;;;;14.25;100.00;100857.84;12202892;19;20010;-79
2023/10/04 18:30:57;;;;;;;8.30;2.88;;;;;;;14.13;100.00;100846.81;12178817;19;20014;-79